sensor_id;sensor_type;location;lat;lon;timestamp;P1;durP1;ratioP1;P2;durP2;ratioP2
11481;SDS011;5797;51.662;6.748;2023-06-10T00:01:44;11.07;;;8.10;;
11481;SDS011;5797;51.662;6.748;2023-06-10T00:04:16;9.20;;;7.87;;
11481;SDS011;5797;51.662;6.748;2023-06-10T00:06:47;9.53;;;7.90;;
11481;SDS011;5797;51.662;6.748;2023-06-10T00:09:16;8.77;;;7.87;;
11481;SDS011;5797;51.662;6.748;2023-06-10T00:11:46;9.07;;;8.17;;
11481;SDS011;5797;51.662;6.748;2023-06-10T00:14:15;9.30;;;7.70;;
11481;SDS011;5797;51.662;6.748;2023-06-10T00:16:44;10.07;;;8.10;;
11481;SDS011;5797;51.662;6.748;2023-06-10T00:19:13;11.27;;;7.83;;
11481;SDS011;5797;51.662;6.748;2023-06-10T00:21:46;10.10;;;8.90;;
11481;SDS011;5797;51.662;6.748;2023-06-10T00:24:16;9.63;;;8.03;;
11481;SDS011;5797;51.662;6.748;2023-06-10T00:26:47;11.47;;;8.63;;
11481;SDS011;5797;51.662;6.748;2023-06-10T00:29:16;11.13;;;8.80;;
11481;SDS011;5797;51.662;6.748;2023-06-10T00:31:45;11.10;;;9.20;;
11481;SDS011;5797;51.662;6.748;2023-06-10T00:34:17;9.47;;;8.30;;
11481;SDS011;5797;51.662;6.748;2023-06-10T00:36:46;10.33;;;8.23;;
11481;SDS011;5797;51.662;6.748;2023-06-10T00:39:16;9.50;;;8.07;;
11481;SDS011;5797;51.662;6.748;2023-06-10T00:41:45;10.47;;;8.60;;
11481;SDS011;5797;51.662;6.748;2023-06-10T00:44:14;10.63;;;8.67;;
11481;SDS011;5797;51.662;6.748;2023-06-10T00:46:43;12.13;;;9.13;;
11481;SDS011;5797;51.662;6.748;2023-06-10T00:49:12;10.17;;;7.97;;
11481;SDS011;5797;51.662;6.748;2023-06-10T00:51:42;9.93;;;8.57;;
11481;SDS011;5797;51.662;6.748;2023-06-10T00:54:10;12.73;;;8.43;;
11481;SDS011;5797;51.662;6.748;2023-06-10T00:56:40;9.53;;;8.30;;
11481;SDS011;5797;51.662;6.748;2023-06-10T00:59:10;12.23;;;9.40;;
11481;SDS011;5797;51.662;6.748;2023-06-10T01:01:38;9.90;;;8.90;;
11481;SDS011;5797;51.662;6.748;2023-06-10T01:04:08;11.43;;;9.00;;
11481;SDS011;5797;51.662;6.748;2023-06-10T01:06:44;11.07;;;8.77;;
11481;SDS011;5797;51.662;6.748;2023-06-10T01:09:18;11.17;;;8.70;;
11481;SDS011;5797;51.662;6.748;2023-06-10T01:11:50;10.40;;;9.33;;
11481;SDS011;5797;51.662;6.748;2023-06-10T01:14:25;10.47;;;9.10;;
11481;SDS011;5797;51.662;6.748;2023-06-10T01:16:55;11.73;;;9.30;;
11481;SDS011;5797;51.662;6.748;2023-06-10T01:19:24;9.63;;;8.63;;
11481;SDS011;5797;51.662;6.748;2023-06-10T01:21:54;10.47;;;8.83;;
11481;SDS011;5797;51.662;6.748;2023-06-10T01:24:22;11.43;;;8.67;;
11481;SDS011;5797;51.662;6.748;2023-06-10T01:26:51;10.90;;;9.40;;
11481;SDS011;5797;51.662;6.748;2023-06-10T01:29:21;12.80;;;8.50;;
11481;SDS011;5797;51.662;6.748;2023-06-10T01:31:54;13.53;;;9.67;;
11481;SDS011;5797;51.662;6.748;2023-06-10T01:34:28;10.87;;;9.30;;
11481;SDS011;5797;51.662;6.748;2023-06-10T01:36:59;9.97;;;8.90;;
11481;SDS011;5797;51.662;6.748;2023-06-10T01:39:28;12.10;;;9.00;;
11481;SDS011;5797;51.662;6.748;2023-06-10T01:41:57;11.27;;;8.70;;
11481;SDS011;5797;51.662;6.748;2023-06-10T01:44:26;10.90;;;9.07;;
11481;SDS011;5797;51.662;6.748;2023-06-10T01:46:54;10.23;;;8.43;;
11481;SDS011;5797;51.662;6.748;2023-06-10T01:49:23;9.60;;;8.60;;
11481;SDS011;5797;51.662;6.748;2023-06-10T01:51:53;10.90;;;8.40;;
11481;SDS011;5797;51.662;6.748;2023-06-10T01:54:23;10.60;;;8.33;;
11481;SDS011;5797;51.662;6.748;2023-06-10T01:56:51;10.63;;;8.20;;
11481;SDS011;5797;51.662;6.748;2023-06-10T01:59:20;11.83;;;9.87;;
11481;SDS011;5797;51.662;6.748;2023-06-10T02:01:48;11.60;;;8.17;;
11481;SDS011;5797;51.662;6.748;2023-06-10T02:04:17;10.70;;;8.73;;
11481;SDS011;5797;51.662;6.748;2023-06-10T02:06:45;11.13;;;8.30;;
11481;SDS011;5797;51.662;6.748;2023-06-10T02:09:13;9.80;;;8.13;;
11481;SDS011;5797;51.662;6.748;2023-06-10T02:11:43;9.43;;;7.93;;
11481;SDS011;5797;51.662;6.748;2023-06-10T02:14:12;8.73;;;7.50;;
11481;SDS011;5797;51.662;6.748;2023-06-10T02:16:40;9.60;;;8.07;;
11481;SDS011;5797;51.662;6.748;2023-06-10T02:19:13;10.67;;;7.87;;
11481;SDS011;5797;51.662;6.748;2023-06-10T02:21:42;9.77;;;7.83;;
11481;SDS011;5797;51.662;6.748;2023-06-10T02:24:10;10.30;;;8.13;;
11481;SDS011;5797;51.662;6.748;2023-06-10T02:26:39;13.23;;;7.70;;
11481;SDS011;5797;51.662;6.748;2023-06-10T02:29:09;8.53;;;7.63;;
11481;SDS011;5797;51.662;6.748;2023-06-10T02:31:39;11.73;;;8.00;;
11481;SDS011;5797;51.662;6.748;2023-06-10T02:34:08;10.10;;;7.53;;
11481;SDS011;5797;51.662;6.748;2023-06-10T02:36:37;9.80;;;7.67;;
11481;SDS011;5797;51.662;6.748;2023-06-10T02:39:07;10.80;;;7.20;;
11481;SDS011;5797;51.662;6.748;2023-06-10T02:41:36;13.37;;;7.97;;
11481;SDS011;5797;51.662;6.748;2023-06-10T02:44:05;9.70;;;7.87;;
11481;SDS011;5797;51.662;6.748;2023-06-10T02:46:35;11.70;;;7.80;;
11481;SDS011;5797;51.662;6.748;2023-06-10T02:49:05;11.17;;;7.87;;
11481;SDS011;5797;51.662;6.748;2023-06-10T02:51:35;9.83;;;7.67;;
11481;SDS011;5797;51.662;6.748;2023-06-10T02:54:04;10.20;;;7.40;;
11481;SDS011;5797;51.662;6.748;2023-06-10T02:56:35;11.23;;;7.73;;
11481;SDS011;5797;51.662;6.748;2023-06-10T02:59:08;10.10;;;7.97;;
11481;SDS011;5797;51.662;6.748;2023-06-10T03:01:39;9.10;;;7.13;;
11481;SDS011;5797;51.662;6.748;2023-06-10T03:04:09;10.73;;;8.23;;
11481;SDS011;5797;51.662;6.748;2023-06-10T03:06:46;8.70;;;6.90;;
11481;SDS011;5797;51.662;6.748;2023-06-10T03:09:24;10.00;;;7.50;;
11481;SDS011;5797;51.662;6.748;2023-06-10T03:11:56;11.80;;;6.90;;
11481;SDS011;5797;51.662;6.748;2023-06-10T03:14:25;11.03;;;7.07;;
11481;SDS011;5797;51.662;6.748;2023-06-10T03:16:55;10.10;;;6.80;;
11481;SDS011;5797;51.662;6.748;2023-06-10T03:19:24;8.73;;;6.93;;
11481;SDS011;5797;51.662;6.748;2023-06-10T03:22:06;12.10;;;7.53;;
11481;SDS011;5797;51.662;6.748;2023-06-10T03:24:38;10.77;;;7.40;;
11481;SDS011;5797;51.662;6.748;2023-06-10T03:27:09;11.83;;;7.30;;
11481;SDS011;5797;51.662;6.748;2023-06-10T03:29:40;8.33;;;6.80;;
11481;SDS011;5797;51.662;6.748;2023-06-10T03:32:11;13.93;;;7.17;;
11481;SDS011;5797;51.662;6.748;2023-06-10T03:34:41;11.43;;;7.67;;
11481;SDS011;5797;51.662;6.748;2023-06-10T03:37:12;10.03;;;6.80;;
11481;SDS011;5797;51.662;6.748;2023-06-10T03:39:42;11.57;;;7.20;;
11481;SDS011;5797;51.662;6.748;2023-06-10T03:42:11;11.47;;;7.90;;
11481;SDS011;5797;51.662;6.748;2023-06-10T03:44:39;8.83;;;6.87;;
11481;SDS011;5797;51.662;6.748;2023-06-10T03:47:08;8.80;;;6.97;;
11481;SDS011;5797;51.662;6.748;2023-06-10T03:49:39;11.27;;;7.00;;
11481;SDS011;5797;51.662;6.748;2023-06-10T03:52:07;13.20;;;7.37;;
11481;SDS011;5797;51.662;6.748;2023-06-10T03:54:36;10.43;;;6.93;;
11481;SDS011;5797;51.662;6.748;2023-06-10T03:57:04;13.13;;;7.53;;
11481;SDS011;5797;51.662;6.748;2023-06-10T03:59:34;11.20;;;7.47;;
11481;SDS011;5797;51.662;6.748;2023-06-10T04:02:04;9.43;;;7.13;;
11481;SDS011;5797;51.662;6.748;2023-06-10T04:04:33;12.30;;;7.30;;
11481;SDS011;5797;51.662;6.748;2023-06-10T04:07:05;14.73;;;7.23;;
11481;SDS011;5797;51.662;6.748;2023-06-10T04:09:36;9.03;;;7.00;;
11481;SDS011;5797;51.662;6.748;2023-06-10T04:12:06;10.17;;;7.27;;
11481;SDS011;5797;51.662;6.748;2023-06-10T04:14:37;11.67;;;7.07;;
11481;SDS011;5797;51.662;6.748;2023-06-10T04:17:08;9.43;;;7.10;;
11481;SDS011;5797;51.662;6.748;2023-06-10T04:19:37;12.40;;;7.27;;
11481;SDS011;5797;51.662;6.748;2023-06-10T04:22:08;8.60;;;7.03;;
11481;SDS011;5797;51.662;6.748;2023-06-10T04:24:37;10.77;;;6.57;;
11481;SDS011;5797;51.662;6.748;2023-06-10T04:27:05;10.57;;;7.57;;
11481;SDS011;5797;51.662;6.748;2023-06-10T04:29:34;10.37;;;7.10;;
11481;SDS011;5797;51.662;6.748;2023-06-10T04:32:03;12.63;;;6.93;;
11481;SDS011;5797;51.662;6.748;2023-06-10T04:34:34;9.70;;;7.33;;
11481;SDS011;5797;51.662;6.748;2023-06-10T04:37:03;9.63;;;7.07;;
11481;SDS011;5797;51.662;6.748;2023-06-10T04:39:33;12.17;;;6.43;;
11481;SDS011;5797;51.662;6.748;2023-06-10T04:42:04;11.60;;;6.80;;
11481;SDS011;5797;51.662;6.748;2023-06-10T04:44:33;10.90;;;6.70;;
11481;SDS011;5797;51.662;6.748;2023-06-10T04:47:01;8.73;;;6.57;;
11481;SDS011;5797;51.662;6.748;2023-06-10T04:49:30;7.63;;;6.20;;
11481;SDS011;5797;51.662;6.748;2023-06-10T04:52:00;8.63;;;6.53;;
11481;SDS011;5797;51.662;6.748;2023-06-10T04:54:28;10.17;;;6.80;;
11481;SDS011;5797;51.662;6.748;2023-06-10T04:56:58;10.17;;;6.40;;
11481;SDS011;5797;51.662;6.748;2023-06-10T04:59:27;11.53;;;6.70;;
11481;SDS011;5797;51.662;6.748;2023-06-10T05:01:56;8.73;;;6.17;;
11481;SDS011;5797;51.662;6.748;2023-06-10T05:04:26;9.00;;;6.23;;
11481;SDS011;5797;51.662;6.748;2023-06-10T05:06:54;9.30;;;6.40;;
11481;SDS011;5797;51.662;6.748;2023-06-10T05:09:22;7.77;;;5.73;;
11481;SDS011;5797;51.662;6.748;2023-06-10T05:11:51;8.43;;;5.90;;
11481;SDS011;5797;51.662;6.748;2023-06-10T05:14:22;6.50;;;5.77;;
11481;SDS011;5797;51.662;6.748;2023-06-10T05:16:50;9.20;;;6.10;;
11481;SDS011;5797;51.662;6.748;2023-06-10T05:19:20;7.37;;;5.77;;
11481;SDS011;5797;51.662;6.748;2023-06-10T05:21:48;8.50;;;5.43;;
11481;SDS011;5797;51.662;6.748;2023-06-10T05:24:17;7.90;;;5.40;;
11481;SDS011;5797;51.662;6.748;2023-06-10T05:26:45;9.13;;;5.80;;
11481;SDS011;5797;51.662;6.748;2023-06-10T05:29:15;6.90;;;4.97;;
11481;SDS011;5797;51.662;6.748;2023-06-10T05:31:45;7.10;;;4.97;;
11481;SDS011;5797;51.662;6.748;2023-06-10T05:34:13;10.40;;;5.13;;
11481;SDS011;5797;51.662;6.748;2023-06-10T05:36:42;8.40;;;4.80;;
11481;SDS011;5797;51.662;6.748;2023-06-10T05:39:10;6.13;;;4.97;;
11481;SDS011;5797;51.662;6.748;2023-06-10T05:41:39;9.20;;;5.57;;
11481;SDS011;5797;51.662;6.748;2023-06-10T05:44:07;7.93;;;4.97;;
11481;SDS011;5797;51.662;6.748;2023-06-10T05:46:38;10.47;;;4.90;;
11481;SDS011;5797;51.662;6.748;2023-06-10T05:49:08;7.97;;;5.00;;
11481;SDS011;5797;51.662;6.748;2023-06-10T05:51:36;10.23;;;5.50;;
11481;SDS011;5797;51.662;6.748;2023-06-10T05:54:05;8.63;;;5.77;;
11481;SDS011;5797;51.662;6.748;2023-06-10T05:56:33;6.63;;;5.23;;
11481;SDS011;5797;51.662;6.748;2023-06-10T05:59:02;8.87;;;4.80;;
11481;SDS011;5797;51.662;6.748;2023-06-10T06:01:30;9.23;;;4.57;;
11481;SDS011;5797;51.662;6.748;2023-06-10T06:03:59;7.97;;;4.80;;
11481;SDS011;5797;51.662;6.748;2023-06-10T06:06:29;9.10;;;5.20;;
11481;SDS011;5797;51.662;6.748;2023-06-10T06:08:57;14.37;;;5.50;;
11481;SDS011;5797;51.662;6.748;2023-06-10T06:11:26;9.47;;;5.77;;
11481;SDS011;5797;51.662;6.748;2023-06-10T06:13:54;5.97;;;4.73;;
11481;SDS011;5797;51.662;6.748;2023-06-10T06:16:23;8.27;;;5.20;;
11481;SDS011;5797;51.662;6.748;2023-06-10T06:18:51;7.70;;;4.83;;
11481;SDS011;5797;51.662;6.748;2023-06-10T06:21:20;6.30;;;5.00;;
11481;SDS011;5797;51.662;6.748;2023-06-10T06:23:50;7.93;;;5.00;;
11481;SDS011;5797;51.662;6.748;2023-06-10T06:26:18;8.27;;;5.03;;
11481;SDS011;5797;51.662;6.748;2023-06-10T06:28:47;7.00;;;5.20;;
11481;SDS011;5797;51.662;6.748;2023-06-10T06:31:16;8.27;;;5.03;;
11481;SDS011;5797;51.662;6.748;2023-06-10T06:33:44;8.87;;;5.00;;
11481;SDS011;5797;51.662;6.748;2023-06-10T06:36:12;8.87;;;4.97;;
11481;SDS011;5797;51.662;6.748;2023-06-10T06:38:41;6.87;;;5.10;;
11481;SDS011;5797;51.662;6.748;2023-06-10T06:41:11;7.83;;;5.03;;
11481;SDS011;5797;51.662;6.748;2023-06-10T06:43:40;5.77;;;4.87;;
11481;SDS011;5797;51.662;6.748;2023-06-10T06:46:22;7.43;;;4.97;;
11481;SDS011;5797;51.662;6.748;2023-06-10T06:48:51;6.57;;;4.90;;
11481;SDS011;5797;51.662;6.748;2023-06-10T06:51:19;9.47;;;5.07;;
11481;SDS011;5797;51.662;6.748;2023-06-10T06:53:48;9.60;;;5.17;;
11481;SDS011;5797;51.662;6.748;2023-06-10T06:56:19;6.93;;;5.33;;
11481;SDS011;5797;51.662;6.748;2023-06-10T06:58:48;6.50;;;4.83;;
11481;SDS011;5797;51.662;6.748;2023-06-10T07:01:17;8.23;;;5.27;;
11481;SDS011;5797;51.662;6.748;2023-06-10T07:03:45;11.33;;;5.40;;
11481;SDS011;5797;51.662;6.748;2023-06-10T07:06:14;8.33;;;5.17;;
11481;SDS011;5797;51.662;6.748;2023-06-10T07:08:42;6.70;;;4.30;;
11481;SDS011;5797;51.662;6.748;2023-06-10T07:11:11;10.47;;;5.97;;
11481;SDS011;5797;51.662;6.748;2023-06-10T07:13:41;7.00;;;4.93;;
11481;SDS011;5797;51.662;6.748;2023-06-10T07:16:09;10.50;;;5.17;;
11481;SDS011;5797;51.662;6.748;2023-06-10T07:18:38;8.00;;;4.73;;
11481;SDS011;5797;51.662;6.748;2023-06-10T07:21:06;11.53;;;4.90;;
11481;SDS011;5797;51.662;6.748;2023-06-10T07:23:35;8.33;;;4.90;;
11481;SDS011;5797;51.662;6.748;2023-06-10T07:26:03;9.77;;;5.70;;
11481;SDS011;5797;51.662;6.748;2023-06-10T07:28:32;6.60;;;5.07;;
11481;SDS011;5797;51.662;6.748;2023-06-10T07:31:02;7.15;;;5.00;;
11481;SDS011;5797;51.662;6.748;2023-06-10T07:33:30;5.53;;;4.78;;
11481;SDS011;5797;51.662;6.748;2023-06-10T07:35:59;5.53;;;4.47;;
11481;SDS011;5797;51.662;6.748;2023-06-10T07:38:27;6.50;;;4.50;;
11481;SDS011;5797;51.662;6.748;2023-06-10T07:40:55;8.45;;;4.95;;
11481;SDS011;5797;51.662;6.748;2023-06-10T07:43:24;6.90;;;4.90;;
11481;SDS011;5797;51.662;6.748;2023-06-10T07:45:52;8.05;;;4.78;;
11481;SDS011;5797;51.662;6.748;2023-06-10T07:48:22;11.32;;;5.05;;
11481;SDS011;5797;51.662;6.748;2023-06-10T07:50:51;7.93;;;4.95;;
11481;SDS011;5797;51.662;6.748;2023-06-10T07:53:19;7.03;;;4.72;;
11481;SDS011;5797;51.662;6.748;2023-06-10T07:55:48;7.47;;;4.95;;
11481;SDS011;5797;51.662;6.748;2023-06-10T07:58:16;6.40;;;4.72;;
11481;SDS011;5797;51.662;6.748;2023-06-10T08:00:45;6.22;;;4.78;;
11481;SDS011;5797;51.662;6.748;2023-06-10T08:03:14;5.75;;;4.45;;
11481;SDS011;5797;51.662;6.748;2023-06-10T08:05:44;11.02;;;5.70;;
11481;SDS011;5797;51.662;6.748;2023-06-10T08:08:13;7.72;;;5.47;;
11481;SDS011;5797;51.662;6.748;2023-06-10T08:10:41;8.05;;;4.78;;
11481;SDS011;5797;51.662;6.748;2023-06-10T08:13:10;9.18;;;4.85;;
11481;SDS011;5797;51.662;6.748;2023-06-10T08:15:38;7.93;;;5.15;;
11481;SDS011;5797;51.662;6.748;2023-06-10T08:18:07;6.50;;;5.90;;
11481;SDS011;5797;51.662;6.748;2023-06-10T08:20:35;6.05;;;4.63;;
11481;SDS011;5797;51.662;6.748;2023-06-10T08:23:05;7.68;;;5.10;;
11481;SDS011;5797;51.662;6.748;2023-06-10T08:25:33;6.70;;;5.32;;
11481;SDS011;5797;51.662;6.748;2023-06-10T08:28:02;9.18;;;4.95;;
11481;SDS011;5797;51.662;6.748;2023-06-10T08:30:30;6.97;;;5.10;;
11481;SDS011;5797;51.662;6.748;2023-06-10T08:32:59;6.82;;;5.22;;
11481;SDS011;5797;51.662;6.748;2023-06-10T08:35:27;6.53;;;5.43;;
11481;SDS011;5797;51.662;6.748;2023-06-10T08:37:56;7.93;;;4.95;;
11481;SDS011;5797;51.662;6.748;2023-06-10T08:40:26;6.80;;;5.22;;
11481;SDS011;5797;51.662;6.748;2023-06-10T08:42:58;11.38;;;5.22;;
11481;SDS011;5797;51.662;6.748;2023-06-10T08:45:29;6.60;;;5.60;;
11481;SDS011;5797;51.662;6.748;2023-06-10T08:47:59;6.32;;;5.43;;
11481;SDS011;5797;51.662;6.748;2023-06-10T08:50:28;8.75;;;5.20;;
11481;SDS011;5797;51.662;6.748;2023-06-10T08:52:58;6.18;;;5.32;;
11481;SDS011;5797;51.662;6.748;2023-06-10T08:55:30;10.43;;;5.40;;
11481;SDS011;5797;51.662;6.748;2023-06-10T08:58:00;10.60;;;5.40;;
11481;SDS011;5797;51.662;6.748;2023-06-10T09:00:30;7.63;;;5.85;;
11481;SDS011;5797;51.662;6.748;2023-06-10T09:02:59;5.95;;;5.35;;
11481;SDS011;5797;51.662;6.748;2023-06-10T09:05:32;7.18;;;5.50;;
11481;SDS011;5797;51.662;6.748;2023-06-10T09:08:01;6.80;;;5.72;;
11481;SDS011;5797;51.662;6.748;2023-06-10T09:10:31;6.82;;;5.43;;
11481;SDS011;5797;51.662;6.748;2023-06-10T09:13:00;8.85;;;5.85;;
11481;SDS011;5797;51.662;6.748;2023-06-10T09:15:29;6.63;;;5.43;;
11481;SDS011;5797;51.662;6.748;2023-06-10T09:17:58;7.28;;;5.80;;
11481;SDS011;5797;51.662;6.748;2023-06-10T09:20:27;6.25;;;5.35;;
11481;SDS011;5797;51.662;6.748;2023-06-10T09:22:55;6.07;;;5.43;;
11481;SDS011;5797;51.662;6.748;2023-06-10T09:25:35;6.18;;;5.57;;
11481;SDS011;5797;51.662;6.748;2023-06-10T09:28:04;8.80;;;6.28;;
11481;SDS011;5797;51.662;6.748;2023-06-10T09:30:37;6.10;;;5.50;;
11481;SDS011;5797;51.662;6.748;2023-06-10T09:33:09;8.40;;;6.05;;
11481;SDS011;5797;51.662;6.748;2023-06-10T09:35:45;7.45;;;6.05;;
11481;SDS011;5797;51.662;6.748;2023-06-10T09:38:14;9.77;;;6.20;;
11481;SDS011;5797;51.662;6.748;2023-06-10T09:40:49;8.55;;;6.10;;
11481;SDS011;5797;51.662;6.748;2023-06-10T09:43:18;7.80;;;5.93;;
11481;SDS011;5797;51.662;6.748;2023-06-10T09:45:47;7.50;;;6.15;;
11481;SDS011;5797;51.662;6.748;2023-06-10T09:48:16;7.85;;;6.00;;
11481;SDS011;5797;51.662;6.748;2023-06-10T09:50:45;10.32;;;6.20;;
11481;SDS011;5797;51.662;6.748;2023-06-10T09:53:13;10.90;;;6.07;;
11481;SDS011;5797;51.662;6.748;2023-06-10T09:55:43;8.27;;;6.50;;
11481;SDS011;5797;51.662;6.748;2023-06-10T09:58:13;7.57;;;6.65;;
11481;SDS011;5797;51.662;6.748;2023-06-10T10:00:42;8.18;;;6.25;;
11481;SDS011;5797;51.662;6.748;2023-06-10T10:03:10;9.88;;;6.70;;
11481;SDS011;5797;51.662;6.748;2023-06-10T10:05:52;10.52;;;6.18;;
11481;SDS011;5797;51.662;6.748;2023-06-10T10:08:26;7.22;;;6.53;;
11481;SDS011;5797;51.662;6.748;2023-06-10T10:10:55;7.85;;;6.57;;
11481;SDS011;5797;51.662;6.748;2023-06-10T10:13:26;10.05;;;6.88;;
11481;SDS011;5797;51.662;6.748;2023-06-10T10:15:56;7.72;;;6.75;;
11481;SDS011;5797;51.662;6.748;2023-06-10T10:18:25;8.88;;;6.80;;
11481;SDS011;5797;51.662;6.748;2023-06-10T10:20:59;7.20;;;6.50;;
11481;SDS011;5797;51.662;6.748;2023-06-10T10:23:31;7.28;;;6.53;;
11481;SDS011;5797;51.662;6.748;2023-06-10T10:26:03;7.75;;;6.95;;
11481;SDS011;5797;51.662;6.748;2023-06-10T10:28:40;7.57;;;6.80;;
11481;SDS011;5797;51.662;6.748;2023-06-10T10:31:10;7.50;;;6.60;;
11481;SDS011;5797;51.662;6.748;2023-06-10T10:33:42;11.50;;;6.95;;
11481;SDS011;5797;51.662;6.748;2023-06-10T10:36:17;7.88;;;7.18;;
11481;SDS011;5797;51.662;6.748;2023-06-10T10:38:47;7.30;;;6.43;;
11481;SDS011;5797;51.662;6.748;2023-06-10T10:41:18;7.50;;;6.57;;
11481;SDS011;5797;51.662;6.748;2023-06-10T10:43:49;7.63;;;6.45;;
11481;SDS011;5797;51.662;6.748;2023-06-10T10:46:18;7.07;;;6.38;;
11481;SDS011;5797;51.662;6.748;2023-06-10T10:48:51;8.35;;;6.35;;
11481;SDS011;5797;51.662;6.748;2023-06-10T10:51:22;8.60;;;6.93;;
11481;SDS011;5797;51.662;6.748;2023-06-10T10:54:10;8.93;;;6.55;;
11481;SDS011;5797;51.662;6.748;2023-06-10T10:56:39;7.50;;;6.40;;
11481;SDS011;5797;51.662;6.748;2023-06-10T10:59:09;7.70;;;6.90;;
11481;SDS011;5797;51.662;6.748;2023-06-10T11:01:42;7.05;;;6.32;;
11481;SDS011;5797;51.662;6.748;2023-06-10T11:04:13;8.52;;;6.78;;
11481;SDS011;5797;51.662;6.748;2023-06-10T11:06:51;7.75;;;6.63;;
11481;SDS011;5797;51.662;6.748;2023-06-10T11:09:26;7.97;;;6.80;;
11481;SDS011;5797;51.662;6.748;2023-06-10T11:11:56;9.15;;;6.60;;
11481;SDS011;5797;51.662;6.748;2023-06-10T11:14:29;8.68;;;6.75;;
11481;SDS011;5797;51.662;6.748;2023-06-10T11:16:58;7.53;;;6.55;;
11481;SDS011;5797;51.662;6.748;2023-06-10T11:19:34;8.02;;;6.95;;
11481;SDS011;5797;51.662;6.748;2023-06-10T11:22:04;8.27;;;6.65;;
11481;SDS011;5797;51.662;6.748;2023-06-10T11:24:33;9.73;;;7.18;;
11481;SDS011;5797;51.662;6.748;2023-06-10T11:27:15;8.75;;;6.68;;
11481;SDS011;5797;51.662;6.748;2023-06-10T11:32:50;8.82;;;7.28;;
11481;SDS011;5797;51.662;6.748;2023-06-10T11:35:19;10.20;;;8.70;;
11481;SDS011;5797;51.662;6.748;2023-06-10T11:37:49;8.15;;;7.30;;
11481;SDS011;5797;51.662;6.748;2023-06-10T11:40:17;8.82;;;7.20;;
11481;SDS011;5797;51.662;6.748;2023-06-10T11:42:46;7.90;;;7.05;;
11481;SDS011;5797;51.662;6.748;2023-06-10T11:45:14;8.43;;;7.22;;
11481;SDS011;5797;51.662;6.748;2023-06-10T11:47:56;9.65;;;7.10;;
11481;SDS011;5797;51.662;6.748;2023-06-10T11:50:29;9.13;;;7.53;;
11481;SDS011;5797;51.662;6.748;2023-06-10T11:52:58;8.30;;;7.47;;
11481;SDS011;5797;51.662;6.748;2023-06-10T11:55:39;14.52;;;7.90;;
11481;SDS011;5797;51.662;6.748;2023-06-10T11:58:12;7.88;;;7.18;;
11481;SDS011;5797;51.662;6.748;2023-06-10T12:00:45;10.18;;;7.32;;
11481;SDS011;5797;51.662;6.748;2023-06-10T12:03:15;9.38;;;7.32;;
11481;SDS011;5797;51.662;6.748;2023-06-10T12:05:57;8.05;;;7.35;;
11481;SDS011;5797;51.662;6.748;2023-06-10T12:08:26;9.07;;;7.35;;
11481;SDS011;5797;51.662;6.748;2023-06-10T12:10:55;8.20;;;7.40;;
11481;SDS011;5797;51.662;6.748;2023-06-10T12:13:26;8.60;;;7.68;;
11481;SDS011;5797;51.662;6.748;2023-06-10T12:15:55;8.98;;;7.80;;
11481;SDS011;5797;51.662;6.748;2023-06-10T12:18:36;8.32;;;7.47;;
11481;SDS011;5797;51.662;6.748;2023-06-10T12:21:14;8.10;;;7.40;;
11481;SDS011;5797;51.662;6.748;2023-06-10T12:26:35;8.38;;;7.47;;
11481;SDS011;5797;51.662;6.748;2023-06-10T12:29:20;8.05;;;7.35;;
11481;SDS011;5797;51.662;6.748;2023-06-10T12:31:51;8.80;;;7.07;;
11481;SDS011;5797;51.662;6.748;2023-06-10T12:34:29;8.43;;;7.63;;
11481;SDS011;5797;51.662;6.748;2023-06-10T12:37:02;9.40;;;7.18;;
11481;SDS011;5797;51.662;6.748;2023-06-10T12:39:32;8.50;;;7.70;;
11481;SDS011;5797;51.662;6.748;2023-06-10T12:42:01;11.82;;;8.73;;
11481;SDS011;5797;51.662;6.748;2023-06-10T12:44:30;8.85;;;7.93;;
11481;SDS011;5797;51.662;6.748;2023-06-10T12:46:59;7.20;;;6.60;;
11481;SDS011;5797;51.662;6.748;2023-06-10T12:49:29;8.63;;;7.38;;
11481;SDS011;5797;51.662;6.748;2023-06-10T12:51:58;9.95;;;7.57;;
11481;SDS011;5797;51.662;6.748;2023-06-10T12:54:26;12.25;;;7.50;;
11481;SDS011;5797;51.662;6.748;2023-06-10T12:56:55;8.90;;;7.70;;
11481;SDS011;5797;51.662;6.748;2023-06-10T12:59:23;9.10;;;7.55;;
11481;SDS011;5797;51.662;6.748;2023-06-10T13:01:52;9.27;;;8.18;;
11481;SDS011;5797;51.662;6.748;2023-06-10T13:04:20;7.80;;;7.10;;
11481;SDS011;5797;51.662;6.748;2023-06-10T13:06:51;12.65;;;7.65;;
11481;SDS011;5797;51.662;6.748;2023-06-10T13:09:19;9.30;;;7.47;;
11481;SDS011;5797;51.662;6.748;2023-06-10T13:11:47;8.15;;;7.25;;
11481;SDS011;5797;51.662;6.748;2023-06-10T13:14:16;9.38;;;6.97;;
11481;SDS011;5797;51.662;6.748;2023-06-10T13:16:44;9.52;;;7.40;;
11481;SDS011;5797;51.662;6.748;2023-06-10T13:19:13;9.05;;;7.60;;
11481;SDS011;5797;51.662;6.748;2023-06-10T13:21:41;8.45;;;7.22;;
11481;SDS011;5797;51.662;6.748;2023-06-10T13:24:11;8.82;;;7.45;;
11481;SDS011;5797;51.662;6.748;2023-06-10T13:26:39;9.13;;;7.68;;
11481;SDS011;5797;51.662;6.748;2023-06-10T13:29:08;8.43;;;7.53;;
11481;SDS011;5797;51.662;6.748;2023-06-10T13:31:40;8.15;;;7.35;;
11481;SDS011;5797;51.662;6.748;2023-06-10T13:34:09;10.35;;;7.68;;
11481;SDS011;5797;51.662;6.748;2023-06-10T13:36:38;8.80;;;7.25;;
11481;SDS011;5797;51.662;6.748;2023-06-10T13:39:06;10.25;;;7.70;;
11481;SDS011;5797;51.662;6.748;2023-06-10T13:41:36;9.65;;;7.68;;
11481;SDS011;5797;51.662;6.748;2023-06-10T13:44:04;14.50;;;7.25;;
11481;SDS011;5797;51.662;6.748;2023-06-10T13:46:33;9.10;;;8.20;;
11481;SDS011;5797;51.662;6.748;2023-06-10T13:49:02;9.25;;;7.70;;
11481;SDS011;5797;51.662;6.748;2023-06-10T13:51:30;8.13;;;7.22;;
11481;SDS011;5797;51.662;6.748;2023-06-10T13:53:58;8.10;;;7.30;;
11481;SDS011;5797;51.662;6.748;2023-06-10T13:56:27;8.27;;;7.32;;
11481;SDS011;5797;51.662;6.748;2023-06-10T13:58:57;8.60;;;6.95;;
11481;SDS011;5797;51.662;6.748;2023-06-10T14:01:28;7.82;;;7.03;;
11481;SDS011;5797;51.662;6.748;2023-06-10T14:03:57;9.48;;;7.20;;
11481;SDS011;5797;51.662;6.748;2023-06-10T14:06:25;11.27;;;7.47;;
11481;SDS011;5797;51.662;6.748;2023-06-10T14:08:54;11.68;;;7.78;;
11481;SDS011;5797;51.662;6.748;2023-06-10T14:11:22;13.63;;;7.40;;
11481;SDS011;5797;51.662;6.748;2023-06-10T14:13:51;8.25;;;7.45;;
11481;SDS011;5797;51.662;6.748;2023-06-10T14:16:21;9.88;;;7.07;;
11481;SDS011;5797;51.662;6.748;2023-06-10T14:18:49;10.40;;;7.82;;
11481;SDS011;5797;51.662;6.748;2023-06-10T14:21:18;10.10;;;7.82;;
11481;SDS011;5797;51.662;6.748;2023-06-10T14:23:47;8.50;;;7.78;;
11481;SDS011;5797;51.662;6.748;2023-06-10T14:26:18;8.93;;;7.43;;
11481;SDS011;5797;51.662;6.748;2023-06-10T14:28:48;8.45;;;7.65;;
11481;SDS011;5797;51.662;6.748;2023-06-10T14:31:17;7.60;;;6.90;;
11481;SDS011;5797;51.662;6.748;2023-06-10T14:33:47;10.75;;;7.25;;
11481;SDS011;5797;51.662;6.748;2023-06-10T14:36:15;8.32;;;7.18;;
11481;SDS011;5797;51.662;6.748;2023-06-10T14:38:44;12.20;;;7.60;;
11481;SDS011;5797;51.662;6.748;2023-06-10T14:41:14;8.48;;;7.65;;
11481;SDS011;5797;51.662;6.748;2023-06-10T14:43:43;8.32;;;7.47;;
11481;SDS011;5797;51.662;6.748;2023-06-10T14:46:11;7.80;;;7.10;;
11481;SDS011;5797;51.662;6.748;2023-06-10T14:48:40;8.40;;;7.55;;
11481;SDS011;5797;51.662;6.748;2023-06-10T14:51:09;11.27;;;7.45;;
11481;SDS011;5797;51.662;6.748;2023-06-10T14:53:38;8.60;;;7.70;;
11481;SDS011;5797;51.662;6.748;2023-06-10T14:56:06;9.80;;;7.55;;
11481;SDS011;5797;51.662;6.748;2023-06-10T14:58:35;8.90;;;7.32;;
11481;SDS011;5797;51.662;6.748;2023-06-10T15:01:04;10.18;;;7.57;;
11481;SDS011;5797;51.662;6.748;2023-06-10T15:03:32;13.82;;;7.72;;
11481;SDS011;5797;51.662;6.748;2023-06-10T15:06:01;9.02;;;7.75;;
11481;SDS011;5797;51.662;6.748;2023-06-10T15:08:31;8.27;;;7.47;;
11481;SDS011;5797;51.662;6.748;2023-06-10T15:10:59;8.18;;;7.43;;
11481;SDS011;5797;51.662;6.748;2023-06-10T15:13:29;8.10;;;7.28;;
11481;SDS011;5797;51.662;6.748;2023-06-10T15:15:57;8.48;;;7.68;;
11481;SDS011;5797;51.662;6.748;2023-06-10T15:18:29;7.75;;;7.05;;
11481;SDS011;5797;51.662;6.748;2023-06-10T15:20:57;8.18;;;7.45;;